Time;durP1;ratioP1;P1;durP2;ratioP2;P2;SDS_P1;SDS_P2;PMS_P1;PMS_P2;Temp;Humidity;BMP_temperature;BMP_pressure;BME280_temperature;BME280_humidity;BME280_pressure;Samples;Min_cycle;Max_cycle;Signal;HPM_P1;HPM_P2
2023/12/22 00:02:18;;;;;;;0.25;0.08;;;7.30;99.90;;;;;;5066668;28;20063;-68
2023/12/22 00:04:44;;;;;;;1.52;0.57;;;7.30;99.90;;;;;;5069376;28;20048;-69
2023/12/22 00:07:09;;;;;;;0.77;0.52;;;7.40;99.90;;;;;;5063528;28;20064;-70
2023/12/22 00:09:35;;;;;;;1.60;0.50;;;7.40;99.90;;;;;;5061348;28;20131;-69
2023/12/22 00:12:00;;;;;;;0.45;0.35;;;7.50;99.90;;;;;;5065601;28;20040;-67
2023/12/22 00:14:26;;;;;;;0.22;0.22;;;7.50;99.90;;;;;;5065099;28;20517;-69
2023/12/22 00:16:51;;;;;;;2.30;0.93;;;7.40;99.90;;;;;;5060065;28;20540;-70
2023/12/22 00:19:17;;;;;;;1.17;0.40;;;7.40;99.90;;;;;;5060643;28;20068;-69
2023/12/22 00:21:42;;;;;;;3.40;1.85;;;7.50;99.90;;;;;;5092587;28;20467;-69
2023/12/22 00:24:08;;;;;;;5.35;0.60;;;7.40;99.90;;;;;;5049909;28;20044;-69
2023/12/22 00:26:33;;;;;;;0.10;0.10;;;7.30;99.90;;;;;;5064001;28;20044;-66
2023/12/22 00:28:59;;;;;;;2.85;0.38;;;7.20;99.90;;;;;;5063588;28;20048;-69
2023/12/22 00:31:24;;;;;;;1.10;0.47;;;7.20;99.90;;;;;;5091776;28;20041;-68
2023/12/22 00:33:50;;;;;;;1.95;0.45;;;7.10;99.90;;;;;;5070856;28;20040;-67
2023/12/22 00:36:17;;;;;;;0.40;0.30;;;7.10;99.90;;;;;;5061287;28;20560;-72
2023/12/22 00:38:43;;;;;;;0.25;0.25;;;7.10;99.90;;;;;;5061934;28;20048;-71
2023/12/22 00:41:10;;;;;;;2.08;0.47;;;7.20;99.90;;;;;;5061777;28;20051;-68
2023/12/22 00:43:35;;;;;;;0.45;0.45;;;7.30;99.90;;;;;;5064045;28;20056;-68
2023/12/22 00:46:01;;;;;;;10.98;0.70;;;7.30;99.90;;;;;;5062010;28;20126;-71
2023/12/22 00:48:27;;;;;;;2.63;1.08;;;7.30;99.90;;;;;;5067748;28;20450;-68
2023/12/22 00:50:53;;;;;;;11.27;1.63;;;7.30;99.90;;;;;;5063829;28;20039;-70
2023/12/22 00:53:18;;;;;;;0.10;0.10;;;7.30;99.90;;;;;;5065444;28;20115;-69
2023/12/22 00:55:44;;;;;;;0.22;0.20;;;7.20;99.90;;;;;;5065601;28;20563;-66
2023/12/22 00:58:09;;;;;;;0.45;0.13;;;7.10;99.90;;;;;;5067597;28;20162;-70
2023/12/22 01:00:35;;;;;;;0.10;0.10;;;7.20;99.90;;;;;;5056948;28;20127;-77
2023/12/22 01:03:00;;;;;;;4.35;0.43;;;7.20;99.90;;;;;;5066157;28;20044;-72
2023/12/22 01:05:26;;;;;;;0.95;0.30;;;7.20;99.90;;;;;;5063552;28;20052;-70
2023/12/22 01:07:51;;;;;;;3.78;0.77;;;7.10;99.90;;;;;;5086002;28;20040;-70
2023/12/22 01:10:17;;;;;;;5.35;0.82;;;7.10;99.90;;;;;;5062915;28;20055;-70
2023/12/22 01:12:42;;;;;;;0.55;0.55;;;7.10;99.90;;;;;;5068325;28;20502;-74
2023/12/22 01:15:08;;;;;;;1.65;0.80;;;7.10;99.90;;;;;;5059916;28;20043;-66
2023/12/22 01:17:34;;;;;;;16.40;0.60;;;7.10;99.90;;;;;;5066374;28;20394;-68
2023/12/22 01:19:59;;;;;;;2.17;0.65;;;7.20;99.90;;;;;;5079958;28;20535;-68
2023/12/22 01:22:25;;;;;;;4.30;1.35;;;7.20;99.90;;;;;;5063512;28;20145;-67
2023/12/22 01:24:50;;;;;;;0.52;0.25;;;7.30;99.90;;;;;;5070626;28;20494;-72
2023/12/22 01:27:16;;;;;;;1.02;0.30;;;7.30;99.90;;;;;;5059713;28;20047;-70
2023/12/22 01:29:41;;;;;;;2.00;0.98;;;7.40;99.90;;;;;;5070629;28;20040;-74
2023/12/22 01:32:07;;;;;;;5.68;0.57;;;7.30;99.90;;;;;;5067691;28;20036;-73
2023/12/22 01:34:32;;;;;;;6.93;0.30;;;7.30;99.90;;;;;;5069263;28;20427;-74
2023/12/22 01:36:58;;;;;;;0.65;0.30;;;7.30;99.90;;;;;;5064846;28;20525;-71
2023/12/22 01:39:23;;;;;;;0.20;0.20;;;7.30;99.90;;;;;;5070572;28;20487;-70
2023/12/22 01:41:49;;;;;;;0.30;0.30;;;7.30;99.90;;;;;;5065380;28;20468;-70
2023/12/22 01:44:14;;;;;;;7.32;1.05;;;7.40;99.90;;;;;;5062609;28;20048;-72
2023/12/22 01:46:40;;;;;;;6.05;0.70;;;7.40;99.90;;;;;;5063895;28;20049;-73
2023/12/22 01:49:07;;;;;;;1.52;0.75;;;7.40;99.90;;;;;;5091867;28;20131;-65
2023/12/22 01:51:35;;;;;;;4.40;0.20;;;7.30;99.90;;;;;;5066539;28;20037;-69
2023/12/22 01:54:01;;;;;;;1.08;0.40;;;7.40;99.90;;;;;;5073960;28;20119;-68
2023/12/22 01:56:27;;;;;;;0.17;0.10;;;7.30;99.90;;;;;;5070569;28;20127;-72
2023/12/22 01:58:57;;;;;;;1.10;0.15;;;7.30;99.90;;;;;;5068004;28;20105;-71
2023/12/22 02:01:23;;;;;;;1.27;0.40;;;7.40;99.90;;;;;;5063327;28;20036;-71
2023/12/22 02:03:54;;;;;;;0.73;0.73;;;7.40;99.90;;;;;;5071796;28;20032;-68
2023/12/22 02:06:20;;;;;;;0.20;0.20;;;7.40;99.90;;;;;;5064360;28;20037;-68
2023/12/22 02:08:49;;;;;;;5.78;0.50;;;7.40;99.90;;;;;;5070683;28;20192;-69
2023/12/22 02:11:15;;;;;;;0.20;0.20;;;7.40;99.90;;;;;;5067183;28;20079;-67
2023/12/22 02:13:42;;;;;;;0.65;0.30;;;7.30;99.90;;;;;;5066012;28;20079;-67
2023/12/22 02:16:22;;;;;;;1.45;0.75;;;7.20;99.90;;;;;;5063540;28;20044;-67
2023/12/22 02:18:51;;;;;;;1.17;0.40;;;7.10;99.90;;;;;;5064178;28;20482;-69
2023/12/22 02:21:17;;;;;;;4.13;0.73;;;7.00;99.90;;;;;;5064085;28;20471;-69
2023/12/22 02:23:43;;;;;;;0.20;0.20;;;7.00;99.90;;;;;;5066639;28;20047;-67
2023/12/22 02:26:36;;;;;;;0.40;0.20;;;6.90;99.90;;;;;;5064429;28;20517;-69
2023/12/22 02:29:02;;;;;;;0.47;0.47;;;6.90;99.90;;;;;;5065138;28;20033;-65
2023/12/22 02:31:44;;;;;;;0.30;0.30;;;6.80;99.90;;;;;;5086570;28;20080;-69
2023/12/22 02:34:15;;;;;;;1.02;0.38;;;6.50;99.90;;;;;;5068177;28;20052;-66
2023/12/22 02:36:42;;;;;;;0.22;0.22;;;6.20;99.90;;;;;;5062445;28;20153;-71
2023/12/22 02:39:09;;;;;;;0.00;0.00;;;6.00;99.90;;;;;;5071973;28;20055;-72
2023/12/22 02:41:36;;;;;;;0.35;0.35;;;5.90;99.90;;;;;;5070691;28;20039;-69
2023/12/22 02:44:01;;;;;;;0.10;0.10;;;5.80;99.90;;;;;;5072702;28;20040;-70
2023/12/22 02:46:27;;;;;;;0.32;0.28;;;5.70;99.90;;;;;;5066942;28;20428;-74
2023/12/22 02:48:53;;;;;;;0.00;0.00;;;5.60;99.90;;;;;;5062157;28;20059;-72
2023/12/22 02:51:18;;;;;;;0.60;0.35;;;5.60;99.90;;;;;;5064735;28;20487;-71
2023/12/22 02:53:44;;;;;;;4.10;0.35;;;5.60;99.90;;;;;;5068655;28;20040;-76
2023/12/22 02:56:09;;;;;;;0.45;0.45;;;5.60;99.90;;;;;;5070085;28;20032;-71
2023/12/22 02:58:35;;;;;;;0.00;0.00;;;5.70;99.90;;;;;;5064583;28;20122;-67
2023/12/22 03:01:00;;;;;;;0.22;0.22;;;5.80;99.90;;;;;;5064157;28;20090;-66
2023/12/22 03:03:26;;;;;;;1.17;0.73;;;5.70;99.90;;;;;;5070270;28;20100;-66
2023/12/22 03:05:51;;;;;;;4.68;1.50;;;5.60;99.90;;;;;;5063286;28;20044;-70
2023/12/22 03:08:17;;;;;;;0.10;0.10;;;5.40;99.90;;;;;;5062858;28;20040;-69
2023/12/22 03:10:42;;;;;;;0.10;0.10;;;5.40;99.90;;;;;;5064455;28;21356;-68
2023/12/22 03:13:08;;;;;;;0.75;0.60;;;5.20;99.90;;;;;;5064749;28;20503;-70
2023/12/22 03:15:33;;;;;;;0.00;0.00;;;5.20;99.90;;;;;;5066748;28;20510;-67
2023/12/22 03:17:59;;;;;;;0.10;0.10;;;5.10;99.90;;;;;;5062272;28;20063;-66
2023/12/22 03:20:24;;;;;;;0.10;0.10;;;5.10;99.90;;;;;;5064118;28;20069;-66
2023/12/22 03:22:50;;;;;;;0.03;0.03;;;5.10;99.90;;;;;;5077147;28;20068;-71
2023/12/22 03:25:16;;;;;;;0.10;0.10;;;5.10;99.90;;;;;;5078045;28;20426;-68
2023/12/22 03:27:41;;;;;;;0.10;0.10;;;5.20;99.90;;;;;;5062819;28;20037;-68
2023/12/22 03:30:07;;;;;;;0.20;0.20;;;5.20;99.90;;;;;;5065959;28;20068;-67
2023/12/22 03:32:33;;;;;;;0.10;0.10;;;5.30;99.90;;;;;;5073645;28;20040;-75
2023/12/22 03:34:58;;;;;;;0.47;0.47;;;5.20;99.90;;;;;;5072528;28;20587;-72
2023/12/22 03:37:24;;;;;;;0.00;0.00;;;5.30;99.90;;;;;;5057869;28;20040;-65
2023/12/22 03:39:49;;;;;;;0.10;0.10;;;5.40;99.90;;;;;;5091786;28;20050;-68
2023/12/22 03:42:15;;;;;;;0.10;0.10;;;5.40;99.90;;;;;;5063093;28;20047;-74
2023/12/22 03:44:40;;;;;;;3.47;3.20;;;5.50;99.90;;;;;;5072524;28;20442;-69
2023/12/22 03:47:06;;;;;;;1.25;0.77;;;5.50;99.90;;;;;;5057879;28;20090;-67
2023/12/22 03:49:32;;;;;;;0.00;0.00;;;5.50;99.90;;;;;;5076491;28;20036;-68
2023/12/22 03:51:58;;;;;;;0.32;0.32;;;5.50;99.90;;;;;;5067531;28;20029;-69
2023/12/22 03:54:23;;;;;;;0.10;0.10;;;5.50;99.90;;;;;;5068312;28;20514;-68
2023/12/22 03:56:49;;;;;;;8.52;0.88;;;5.50;99.90;;;;;;5064216;28;20032;-67
2023/12/22 03:59:18;;;;;;;0.40;0.40;;;5.60;99.90;;;;;;5064575;28;20085;-69
2023/12/22 04:01:44;;;;;;;0.10;0.10;;;5.60;99.90;;;;;;5067794;28;20044;-67
2023/12/22 04:04:09;;;;;;;0.65;0.40;;;5.70;99.90;;;;;;5063143;28;20069;-69
2023/12/22 04:06:39;;;;;;;0.25;0.25;;;5.80;99.90;;;;;;5064895;28;20040;-68
2023/12/22 04:09:04;;;;;;;2.10;0.38;;;5.90;99.90;;;;;;5065543;28;20044;-70
2023/12/22 04:11:30;;;;;;;0.45;0.45;;;6.10;99.90;;;;;;5064519;28;20055;-69
2023/12/22 04:13:55;;;;;;;0.40;0.40;;;6.20;99.90;;;;;;5067347;28;20041;-67
2023/12/22 04:16:21;;;;;;;1.17;0.85;;;6.30;99.90;;;;;;5070980;28;20045;-67
2023/12/22 04:18:46;;;;;;;0.30;0.28;;;6.40;99.90;;;;;;5050508;28;20517;-67
2023/12/22 04:21:12;;;;;;;0.70;0.70;;;6.40;99.90;;;;;;5064874;28;20051;-68
2023/12/22 04:23:37;;;;;;;5.35;0.20;;;6.50;99.90;;;;;;5069532;28;20040;-67
2023/12/22 04:26:03;;;;;;;1.40;0.63;;;6.50;99.90;;;;;;5064767;28;20033;-69
2023/12/22 04:28:29;;;;;;;0.10;0.10;;;6.50;99.90;;;;;;5068741;28;20055;-68
2023/12/22 04:30:54;;;;;;;0.75;0.28;;;6.50;99.90;;;;;;5076930;28;20483;-70
2023/12/22 04:33:20;;;;;;;0.77;0.45;;;6.60;99.90;;;;;;5062239;28;20372;-67
2023/12/22 04:35:45;;;;;;;0.20;0.20;;;6.60;99.90;;;;;;5070287;28;20229;-68
2023/12/22 04:38:11;;;;;;;0.03;0.03;;;6.60;99.90;;;;;;5067418;28;20036;-74
2023/12/22 04:40:36;;;;;;;0.57;0.15;;;6.60;99.90;;;;;;5065611;28;20046;-66
2023/12/22 04:43:02;;;;;;;0.30;0.30;;;6.70;99.90;;;;;;5060415;28;20036;-71
2023/12/22 04:45:27;;;;;;;3.65;0.55;;;6.70;99.90;;;;;;5064894;28;20094;-69
2023/12/22 04:47:53;;;;;;;3.60;0.40;;;6.70;99.90;;;;;;5062529;28;20095;-68
2023/12/22 04:50:18;;;;;;;0.40;0.13;;;6.80;99.90;;;;;;5061556;28;20113;-65
2023/12/22 04:52:44;;;;;;;0.70;0.70;;;6.70;99.90;;;;;;5064652;28;20098;-69
2023/12/22 04:55:10;;;;;;;0.15;0.15;;;6.80;99.90;;;;;;5062838;28;20115;-68
2023/12/22 04:57:35;;;;;;;0.70;0.20;;;6.80;99.90;;;;;;5064891;28;20044;-68
2023/12/22 05:00:01;;;;;;;0.60;0.47;;;6.80;99.90;;;;;;5068914;28;20052;-69
2023/12/22 05:02:26;;;;;;;2.55;0.20;;;6.90;99.90;;;;;;5062790;28;20055;-69
2023/12/22 05:04:52;;;;;;;1.38;0.43;;;6.90;99.90;;;;;;5065569;28;20048;-70
2023/12/22 05:07:17;;;;;;;0.10;0.10;;;6.90;99.90;;;;;;5067742;28;20044;-67
2023/12/22 05:09:43;;;;;;;0.20;0.20;;;6.90;99.90;;;;;;5065318;28;20028;-67
2023/12/22 05:12:09;;;;;;;0.63;0.32;;;6.90;99.90;;;;;;5065216;28;20036;-71
2023/12/22 05:14:35;;;;;;;0.30;0.30;;;7.00;99.90;;;;;;5067540;28;20504;-69
2023/12/22 05:17:01;;;;;;;3.35;0.32;;;7.00;99.90;;;;;;5064846;28;20044;-72
2023/12/22 05:19:26;;;;;;;6.95;0.32;;;7.00;99.90;;;;;;5066965;28;20139;-68
2023/12/22 05:21:55;;;;;;;0.10;0.10;;;7.00;99.90;;;;;;5065157;28;20527;-70
2023/12/22 05:24:21;;;;;;;0.00;0.00;;;7.00;99.90;;;;;;5062643;28;20497;-75
2023/12/22 05:26:47;;;;;;;0.52;0.30;;;7.10;99.90;;;;;;5062598;28;20033;-71
2023/12/22 05:29:12;;;;;;;9.43;0.85;;;7.10;99.90;;;;;;5068570;28;20076;-68
2023/12/22 05:31:39;;;;;;;1.10;1.10;;;7.20;99.90;;;;;;5059857;28;20068;-72
2023/12/22 05:34:05;;;;;;;6.45;0.28;;;7.20;99.90;;;;;;5065526;28;20045;-67
2023/12/22 05:36:31;;;;;;;0.25;0.25;;;7.10;99.90;;;;;;5063155;28;20085;-67
2023/12/22 05:38:56;;;;;;;1.55;0.63;;;7.20;99.90;;;;;;5066953;28;20037;-69
2023/12/22 05:41:22;;;;;;;1.73;0.55;;;7.30;99.90;;;;;;5063807;28;20051;-67
2023/12/22 05:43:47;;;;;;;0.55;0.32;;;7.30;99.90;;;;;;5061290;28;20044;-67
2023/12/22 05:46:13;;;;;;;0.63;0.63;;;7.30;99.90;;;;;;5061938;28;20032;-69
2023/12/22 05:48:38;;;;;;;0.73;0.73;;;7.30;99.90;;;;;;5067138;28;20384;-67
2023/12/22 05:51:07;;;;;;;0.13;0.13;;;7.30;99.90;;;;;;5050559;28;20483;-68
2023/12/22 05:53:33;;;;;;;3.95;0.20;;;7.40;99.90;;;;;;5071997;28;20041;-69
2023/12/22 05:55:58;;;;;;;0.43;0.30;;;7.40;99.90;;;;;;5063635;28;20039;-68
2023/12/22 05:58:24;;;;;;;0.08;0.08;;;7.50;99.90;;;;;;5044027;28;20048;-73
2023/12/22 06:00:49;;;;;;;0.20;0.20;;;7.50;99.90;;;;;;5064814;28;20041;-68
2023/12/22 06:03:15;;;;;;;0.10;0.10;;;7.40;99.90;;;;;;5066011;28;20037;-70
2023/12/22 06:05:40;;;;;;;2.10;0.65;;;7.50;99.90;;;;;;5066923;28;20036;-68
2023/12/22 06:08:06;;;;;;;0.55;0.55;;;7.40;99.90;;;;;;5069125;28;20155;-68
2023/12/22 06:10:31;;;;;;;0.00;0.00;;;7.40;99.90;;;;;;5069717;28;20076;-67
2023/12/22 06:12:57;;;;;;;0.65;0.20;;;7.30;99.90;;;;;;5088741;28;20110;-69
2023/12/22 06:15:23;;;;;;;0.30;0.30;;;7.30;99.90;;;;;;5065982;28;20404;-68
2023/12/22 06:17:49;;;;;;;1.65;0.30;;;7.30;99.90;;;;;;5073991;28;20071;-66
2023/12/22 06:20:15;;;;;;;0.32;0.32;;;7.30;99.90;;;;;;5066101;28;20071;-66
2023/12/22 06:22:41;;;;;;;0.10;0.10;;;7.30;99.90;;;;;;5067147;28;20522;-67
2023/12/22 06:25:07;;;;;;;2.92;0.93;;;7.30;99.90;;;;;;5068203;28;20036;-66
2023/12/22 06:27:33;;;;;;;1.25;0.55;;;7.30;99.90;;;;;;5071282;28;20044;-66
2023/12/22 06:29:59;;;;;;;0.10;0.10;;;7.30;99.90;;;;;;5070575;28;20228;-67
2023/12/22 06:32:25;;;;;;;0.10;0.10;;;7.30;99.90;;;;;;5068760;28;20119;-68
2023/12/22 06:34:50;;;;;;;3.03;0.32;;;7.30;99.90;;;;;;5063788;28;20090;-66
2023/12/22 06:37:16;;;;;;;0.45;0.45;;;7.30;99.90;;;;;;5054557;28;20052;-67
2023/12/22 06:39:42;;;;;;;0.22;0.22;;;7.30;99.90;;;;;;5061497;28;20119;-65
2023/12/22 06:42:10;;;;;;;7.05;1.75;;;7.30;99.90;;;;;;5070860;28;20605;-67
2023/12/22 06:44:37;;;;;;;0.70;0.40;;;7.40;99.90;;;;;;5060838;28;20483;-67
2023/12/22 06:47:03;;;;;;;0.60;0.60;;;7.30;99.90;;;;;;5069639;28;20372;-73
2023/12/22 06:49:28;;;;;;;1.05;1.05;;;7.40;99.90;;;;;;5072873;28;20040;-70
2023/12/22 06:51:54;;;;;;;0.57;0.57;;;7.40;99.90;;;;;;5072497;28;20093;-69
2023/12/22 06:54:19;;;;;;;0.75;0.50;;;7.30;99.90;;;;;;5070052;28;20137;-66
2023/12/22 06:56:45;;;;;;;0.08;0.08;;;7.40;99.90;;;;;;5065049;28;20024;-68
2023/12/22 06:59:11;;;;;;;2.65;0.57;;;7.30;99.90;;;;;;5066032;28;20105;-67
2023/12/22 07:01:37;;;;;;;0.40;0.40;;;7.30;99.90;;;;;;5064719;28;20501;-69
2023/12/22 07:04:04;;;;;;;7.88;0.95;;;7.20;99.90;;;;;;5069000;28;20044;-66
2023/12/22 07:06:31;;;;;;;0.25;0.25;;;7.20;99.90;;;;;;5068323;28;20044;-67
2023/12/22 07:09:16;;;;;;;0.20;0.20;;;7.20;99.90;;;;;;5066402;28;20046;-68
2023/12/22 07:11:55;;;;;;;0.75;0.20;;;7.10;99.90;;;;;;5068541;28;20043;-67
2023/12/22 07:14:21;;;;;;;9.07;0.57;;;7.20;99.90;;;;;;5063313;28;20040;-70
2023/12/22 07:16:47;;;;;;;8.75;0.35;;;7.20;99.90;;;;;;5067436;28;20167;-68
2023/12/22 07:19:13;;;;;;;0.38;0.38;;;7.30;99.90;;;;;;5044761;28;20039;-67
2023/12/22 07:21:41;;;;;;;2.25;2.05;;;7.20;99.90;;;;;;5065398;28;20036;-67
2023/12/22 07:24:07;;;;;;;0.28;0.28;;;7.20;99.90;;;;;;5056732;28;20043;-69
2023/12/22 07:26:33;;;;;;;0.03;0.03;;;7.20;99.90;;;;;;5065150;28;20387;-69
2023/12/22 07:28:58;;;;;;;4.55;0.20;;;7.20;99.90;;;;;;5062983;28;20032;-68
2023/12/22 07:31:24;;;;;;;4.38;0.38;;;7.10;99.90;;;;;;5061674;28;20380;-68
2023/12/22 07:33:51;;;;;;;1.98;0.40;;;7.10;99.90;;;;;;5062222;28;20036;-68
2023/12/22 07:36:18;;;;;;;0.10;0.10;;;7.10;99.90;;;;;;5064981;28;20029;-69
2023/12/22 07:38:44;;;;;;;0.20;0.20;;;7.10;99.90;;;;;;5066152;28;20467;-67
2023/12/22 07:41:10;;;;;;;0.25;0.25;;;7.10;99.90;;;;;;5065130;28;20078;-69
2023/12/22 07:43:36;;;;;;;0.20;0.20;;;7.10;99.90;;;;;;5065290;28;20044;-70
2023/12/22 07:46:01;;;;;;;0.88;0.85;;;7.00;99.90;;;;;;5062485;28;20040;-67
2023/12/22 07:48:27;;;;;;;0.00;0.00;;;7.00;99.90;;;;;;5062488;28;20037;-70
2023/12/22 07:50:53;;;;;;;0.30;0.30;;;6.90;99.90;;;;;;5068851;28;20045;-70
2023/12/22 07:53:19;;;;;;;0.00;0.00;;;6.90;99.90;;;;;;5061901;28;20178;-71
2023/12/22 07:55:46;;;;;;;1.13;0.68;;;6.90;99.90;;;;;;5056405;28;20502;-67
2023/12/22 07:58:12;;;;;;;0.85;0.20;;;6.80;99.90;;;;;;5064237;28;20037;-68
2023/12/22 08:00:38;;;;;;;2.42;1.17;;;6.80;99.90;;;;;;5069137;28;20501;-68
2023/12/22 08:03:03;;;;;;;0.10;0.10;;;6.80;99.90;;;;;;5063224;28;20132;-70
2023/12/22 08:05:33;;;;;;;0.08;0.08;;;6.80;99.90;;;;;;5049882;28;20043;-70
2023/12/22 08:07:59;;;;;;;0.10;0.10;;;6.80;99.90;;;;;;5054931;28;20495;-70
2023/12/22 08:10:24;;;;;;;0.22;0.22;;;6.80;99.90;;;;;;5066142;28;20037;-69
2023/12/22 08:12:50;;;;;;;0.47;0.40;;;6.80;99.90;;;;;;5054640;28;20037;-70
2023/12/22 08:15:15;;;;;;;0.20;0.20;;;6.80;99.90;;;;;;5069483;28;20036;-71
2023/12/22 08:17:48;;;;;;;0.10;0.10;;;6.90;99.90;;;;;;5055639;28;20050;-69
2023/12/22 08:20:18;;;;;;;;;;;6.90;99.90;;;;;;5069351;28;20071;-72
2023/12/22 08:22:47;;;;;;;0.10;0.10;;;6.90;99.90;;;;;;5064738;28;19917;-70
2023/12/22 08:25:13;;;;;;;0.90;0.65;;;6.90;99.90;;;;;;5067587;28;20161;-69
2023/12/22 08:27:39;;;;;;;4.07;1.65;;;6.90;99.90;;;;;;5054775;28;20119;-69
2023/12/22 08:30:05;;;;;;;0.10;0.10;;;6.90;99.90;;;;;;5070338;28;20128;-68
2023/12/22 08:32:31;;;;;;;0.10;0.10;;;6.90;99.90;;;;;;5061440;28;20048;-69
2023/12/22 08:34:56;;;;;;;0.17;0.17;;;6.90;99.90;;;;;;5049396;28;20076;-68
2023/12/22 08:37:22;;;;;;;0.05;0.05;;;6.80;99.90;;;;;;5077724;28;20123;-68
2023/12/22 08:39:48;;;;;;;0.35;0.35;;;6.80;99.90;;;;;;5070294;28;20040;-66
2023/12/22 08:42:14;;;;;;;0.10;0.10;;;6.80;99.90;;;;;;5064956;28;20040;-70
2023/12/22 08:44:39;;;;;;;0.10;0.10;;;6.70;99.90;;;;;;5052895;28;20511;-68
2023/12/22 08:47:05;;;;;;;1.30;1.05;;;6.70;99.90;;;;;;5068366;28;20041;-67
2023/12/22 08:49:30;;;;;;;4.30;0.15;;;6.70;99.90;;;;;;5082715;28;20041;-69
2023/12/22 08:51:56;;;;;;;0.13;0.13;;;6.70;99.90;;;;;;5051157;28;20041;-66
2023/12/22 08:54:22;;;;;;;0.20;0.20;;;6.70;99.90;;;;;;5048654;28;20072;-67
2023/12/22 08:56:47;;;;;;;0.10;0.10;;;6.70;99.90;;;;;;5099280;28;20131;-73
2023/12/22 08:59:13;;;;;;;0.45;0.45;;;6.60;99.90;;;;;;5069346;28;20037;-69
2023/12/22 09:01:40;;;;;;;1.13;0.28;;;6.70;99.90;;;;;;5067969;28;20339;-70
2023/12/22 09:04:06;;;;;;;0.10;0.10;;;6.70;99.90;;;;;;5064412;28;20495;-71
2023/12/22 09:06:32;;;;;;;1.15;0.30;;;6.60;99.90;;;;;;5067346;28;20040;-69
2023/12/22 09:08:57;;;;;;;3.72;1.10;;;6.60;99.90;;;;;;5057892;28;20032;-70
2023/12/22 09:11:23;;;;;;;0.10;0.10;;;6.60;99.90;;;;;;5069357;28;20394;-70
2023/12/22 09:13:49;;;;;;;0.00;0.00;;;6.60;99.90;;;;;;5075162;28;20039;-69
2023/12/22 09:16:21;;;;;;;0.00;0.00;;;6.60;99.90;;;;;;5066943;28;20391;-71
2023/12/22 09:18:47;;;;;;;0.10;0.10;;;6.70;99.90;;;;;;5048233;28;20046;-68
2023/12/22 09:21:12;;;;;;;1.65;0.80;;;6.70;99.90;;;;;;5070932;28;20032;-68
2023/12/22 09:23:38;;;;;;;1.45;0.38;;;6.60;99.90;;;;;;5069570;28;20039;-71
2023/12/22 09:26:04;;;;;;;0.00;0.00;;;6.60;99.90;;;;;;5063828;28;20043;-69
2023/12/22 09:28:30;;;;;;;1.23;0.32;;;6.50;99.90;;;;;;5067161;28;20099;-69
2023/12/22 09:30:55;;;;;;;0.38;0.38;;;6.50;99.90;;;;;;5061273;28;20072;-69
2023/12/22 09:33:22;;;;;;;0.05;0.05;;;6.40;99.90;;;;;;5056868;28;20319;-69
2023/12/22 09:35:48;;;;;;;3.13;0.38;;;6.30;99.90;;;;;;5062852;28;20032;-69
2023/12/22 09:38:14;;;;;;;0.55;0.20;;;6.30;99.90;;;;;;5071249;28;20451;-69
2023/12/22 09:40:39;;;;;;;0.00;0.00;;;6.30;99.90;;;;;;5069271;28;20124;-68
2023/12/22 09:43:07;;;;;;;0.52;0.47;;;6.30;99.90;;;;;;5066614;28;20040;-70
2023/12/22 09:45:37;;;;;;;3.50;1.30;;;6.30;99.90;;;;;;5070066;28;20032;-69
2023/12/22 09:48:05;;;;;;;0.05;0.05;;;6.30;99.90;;;;;;5078534;28;20032;-70
2023/12/22 09:50:30;;;;;;;1.17;0.15;;;6.20;99.90;;;;;;5068717;28;20140;-69
2023/12/22 09:52:56;;;;;;;0.10;0.10;;;6.20;99.90;;;;;;5066895;28;20123;-69
2023/12/22 09:55:24;;;;;;;0.08;0.08;;;6.30;99.90;;;;;;5093964;28;20045;-67
2023/12/22 09:57:52;;;;;;;0.10;0.10;;;6.30;99.90;;;;;;5059121;28;20044;-69
2023/12/22 10:00:18;;;;;;;0.10;0.10;;;6.20;99.90;;;;;;5068072;28;20672;-68
2023/12/22 10:02:45;;;;;;;0.10;0.10;;;6.30;99.90;;;;;;5095408;28;20140;-69
2023/12/22 10:05:14;;;;;;;0.17;0.17;;;6.30;99.90;;;;;;5086370;28;20051;-68
2023/12/22 10:07:43;;;;;;;0.00;0.00;;;6.40;99.90;;;;;;5064535;28;20119;-69
2023/12/22 10:10:11;;;;;;;0.10;0.10;;;6.40;99.90;;;;;;5076300;28;20040;-71
2023/12/22 10:12:41;;;;;;;0.17;0.15;;;6.50;99.90;;;;;;5072363;28;20425;-73
2023/12/22 10:15:12;;;;;;;0.10;0.10;;;6.50;99.90;;;;;;5070475;28;20086;-70
2023/12/22 10:17:37;;;;;;;0.10;0.10;;;6.60;99.90;;;;;;5063776;28;20076;-71
2023/12/22 10:20:04;;;;;;;0.28;0.10;;;6.60;99.90;;;;;;5063458;28;20086;-70
2023/12/22 10:22:29;;;;;;;0.08;0.08;;;6.60;99.90;;;;;;5062659;28;20045;-71
2023/12/22 10:24:55;;;;;;;0.10;0.10;;;6.70;99.90;;;;;;5069614;28;20044;-72
2023/12/22 10:27:23;;;;;;;0.10;0.10;;;6.70;99.90;;;;;;5075513;28;20044;-74
2023/12/22 10:29:56;;;;;;;0.00;0.00;;;6.80;99.90;;;;;;5070564;28;20121;-74
2023/12/22 10:32:21;;;;;;;;;;;6.80;99.90;;;;;;5065918;28;20033;-70
2023/12/22 10:34:48;;;;;;;1.95;0.80;;;6.90;99.90;;;;;;5068815;28;19916;-72
2023/12/22 10:37:14;;;;;;;0.20;0.20;;;6.80;99.90;;;;;;5072885;28;20090;-69
2023/12/22 10:39:40;;;;;;;0.13;0.13;;;6.80;99.90;;;;;;5067504;28;20036;-72
2023/12/22 10:42:06;;;;;;;0.20;0.20;;;6.80;99.90;;;;;;5062906;28;20087;-70
2023/12/22 10:44:32;;;;;;;0.10;0.10;;;6.80;99.90;;;;;;5070044;28;20072;-72
2023/12/22 10:47:00;;;;;;;0.10;0.10;;;6.80;99.90;;;;;;5071864;28;20479;-68
2023/12/22 10:49:26;;;;;;;0.63;0.43;;;6.80;99.90;;;;;;5071788;28;20032;-69
2023/12/22 10:51:52;;;;;;;0.10;0.10;;;6.80;99.90;;;;;;5068045;28;20036;-71
2023/12/22 10:54:19;;;;;;;0.47;0.32;;;6.80;99.90;;;;;;5086525;28;20038;-70
2023/12/22 10:56:45;;;;;;;0.10;0.10;;;6.80;99.90;;;;;;5066920;28;20135;-72
2023/12/22 10:59:11;;;;;;;0.10;0.10;;;6.80;99.90;;;;;;5062920;28;20127;-72
2023/12/22 11:01:40;;;;;;;0.20;0.20;;;6.90;99.90;;;;;;5068276;28;20537;-72
2023/12/22 11:04:07;;;;;;;0.00;0.00;;;6.90;99.90;;;;;;5064888;28;20094;-70
2023/12/22 11:06:37;;;;;;;0.75;0.75;;;6.90;99.90;;;;;;5063856;28;20083;-70
2023/12/22 11:09:10;;;;;;;0.10;0.10;;;7.00;99.90;;;;;;5069468;28;20044;-69
2023/12/22 11:11:37;;;;;;;0.10;0.10;;;7.00;99.90;;;;;;5092799;28;20560;-72
2023/12/22 11:14:05;;;;;;;0.00;0.00;;;7.00;99.90;;;;;;5066088;28;20032;-72
2023/12/22 11:16:35;;;;;;;0.00;0.00;;;7.00;99.90;;;;;;5096564;28;20055;-72
2023/12/22 11:19:02;;;;;;;0.00;0.00;;;7.00;99.90;;;;;;5071700;28;20090;-70
2023/12/22 11:21:29;;;;;;;0.00;0.00;;;7.00;99.90;;;;;;5069596;28;20113;-72
2023/12/22 11:23:55;;;;;;;0.82;0.82;;;7.00;99.90;;;;;;5060881;28;20040;-72
2023/12/22 11:26:22;;;;;;;0.00;0.00;;;7.10;99.90;;;;;;5065468;28;20060;-70
2023/12/22 11:28:50;;;;;;;0.00;0.00;;;7.10;99.90;;;;;;5068563;28;20056;-70
2023/12/22 11:31:17;;;;;;;0.00;0.00;;;7.10;99.90;;;;;;5069508;28;20411;-70
2023/12/22 11:33:50;;;;;;;0.10;0.10;;;7.10;99.90;;;;;;5063440;28;20402;-71
2023/12/22 11:36:17;;;;;;;0.00;0.00;;;7.10;99.90;;;;;;5063485;28;20384;-72
2023/12/22 11:38:45;;;;;;;0.00;0.00;;;7.10;99.90;;;;;;5066505;28;20120;-73
2023/12/22 11:41:26;;;;;;;0.10;0.10;;;7.10;99.90;;;;;;5081581;28;20047;-73
2023/12/22 11:43:52;;;;;;;0.10;0.10;;;7.10;99.90;;;;;;5058488;28;20036;-70
2023/12/22 11:46:18;;;;;;;0.10;0.10;;;7.10;99.90;;;;;;5067063;28;20036;-71
2023/12/22 11:48:48;;;;;;;3.45;0.10;;;7.20;99.90;;;;;;5058496;28;20551;-72
2023/12/22 11:51:15;;;;;;;0.10;0.10;;;7.20;99.90;;;;;;5067683;28;20036;-71
2023/12/22 11:53:41;;;;;;;0.00;0.00;;;7.20;99.90;;;;;;5064747;28;20037;-68
2023/12/22 11:56:10;;;;;;;0.10;0.10;;;7.30;99.90;;;;;;5065984;28;20035;-72
2023/12/22 11:58:37;;;;;;;0.22;0.20;;;7.30;99.90;;;;;;5060736;28;20056;-72
2023/12/22 12:01:06;;;;;;;0.10;0.10;;;7.30;99.90;;;;;;5068209;28;20519;-71
2023/12/22 12:03:32;;;;;;;0.20;0.20;;;7.30;99.90;;;;;;5064539;28;20070;-68
2023/12/22 12:06:11;;;;;;;0.00;0.00;;;7.40;99.90;;;;;;5063392;28;20103;-72
2023/12/22 12:08:36;;;;;;;0.05;0.05;;;7.40;99.90;;;;;;5091783;28;20130;-70
2023/12/22 12:11:03;;;;;;;0.00;0.00;;;7.40;99.90;;;;;;5060311;28;20025;-71
2023/12/22 12:13:31;;;;;;;0.10;0.10;;;7.30;99.90;;;;;;5061936;28;20561;-71
2023/12/22 12:16:00;;;;;;;0.10;0.08;;;7.40;99.90;;;;;;5085953;28;20056;-69
2023/12/22 12:18:28;;;;;;;0.00;0.00;;;7.40;99.90;;;;;;5070276;28;20067;-71
2023/12/22 12:20:54;;;;;;;0.00;0.00;;;7.40;99.90;;;;;;5089597;28;20056;-70
2023/12/22 12:23:23;;;;;;;0.00;0.00;;;7.40;99.90;;;;;;5062878;28;20036;-70
2023/12/22 12:25:49;;;;;;;0.10;0.10;;;7.40;99.90;;;;;;5060432;28;20033;-69
2023/12/22 12:28:18;;;;;;;0.10;0.10;;;7.50;99.90;;;;;;5063563;28;20113;-71
2023/12/22 12:30:45;;;;;;;0.20;0.20;;;7.50;99.90;;;;;;5068973;28;20044;-69
2023/12/22 12:33:13;;;;;;;0.10;0.10;;;7.50;99.90;;;;;;5071705;28;20158;-71
2023/12/22 12:35:40;;;;;;;0.10;0.10;;;7.50;99.90;;;;;;5063721;28;20083;-69
2023/12/22 12:38:05;;;;;;;0.17;0.17;;;7.50;99.90;;;;;;5085591;28;20051;-71
2023/12/22 12:40:35;;;;;;;0.10;0.10;;;7.50;99.90;;;;;;5061713;28;20403;-69
2023/12/22 12:43:02;;;;;;;0.10;0.10;;;7.50;99.90;;;;;;5061473;28;20036;-70
2023/12/22 12:45:28;;;;;;;13.30;0.57;;;7.50;99.90;;;;;;5065718;28;20079;-69
2023/12/22 12:48:00;;;;;;;0.10;0.10;;;7.50;99.90;;;;;;5058388;28;20041;-69
2023/12/22 12:50:26;;;;;;;0.00;0.00;;;7.50;99.90;;;;;;5083927;28;20618;-68
2023/12/22 12:52:55;;;;;;;0.00;0.00;;;7.50;99.90;;;;;;5066559;28;20035;-70
2023/12/22 12:55:22;;;;;;;0.10;0.10;;;7.60;99.90;;;;;;5062864;28;20333;-70